Terminal Aerodrome Forecast
Issued by NWS

Home | Current Version | Previous Version | Graphics & Text | Print | Product List | Glossary Off
Versions: 1 2 3 4 5 6 7 8 9 10 11 12 13 14

000
FTUS43 KGRB 170525
TAFAUW
TAF
KAUW 170525Z 1706/1806 07005KT 3SM -FZRA BR OVC006
     FM170900 04005KT 3SM -FZRA BR OVC005
     FM171200 03005KT 5SM -SHSNPL BR OVC007
     FM171800 36005KT 5SM -SHSN BKN015
     FM172300 33004KT P6SM BKN025=

USA.gov is the U.S. government's official web portal to all federal, state and local government web resources and services.